Аэропорт: Богашево. Томск

ICAO: UNTT

METAR:
2021-01-20 03:00:00
UNTT 200300Z 20002MPS CAVOK M31/M35 Q1025 R21/490147 NOSIG RMK QFE754
METAR:
2021-01-20 02:00:00
TAF UNTT 200200Z 2003/2012 22003G08MPS 8000 SCT040